sensor_id;sensor_type;location;lat;lon;timestamp;P1;durP1;ratioP1;P2;durP2;ratioP2
72464;SDS011;60471;52.150;4.508;2022-10-16T00:01:25;5.93;;;1.15;;
72464;SDS011;60471;52.150;4.508;2022-10-16T00:03:55;6.47;;;1.60;;
72464;SDS011;60471;52.150;4.508;2022-10-16T00:06:24;7.95;;;1.40;;
72464;SDS011;60471;52.150;4.508;2022-10-16T00:08:53;7.45;;;1.30;;
72464;SDS011;60471;52.150;4.508;2022-10-16T00:11:21;6.38;;;1.50;;
72464;SDS011;60471;52.150;4.508;2022-10-16T00:13:51;5.03;;;1.08;;
72464;SDS011;60471;52.150;4.508;2022-10-16T00:16:22;7.55;;;1.20;;
72464;SDS011;60471;52.150;4.508;2022-10-16T00:18:48;12.48;;;3.88;;
72464;SDS011;60471;52.150;4.508;2022-10-16T00:21:16;4.97;;;1.15;;
72464;SDS011;60471;52.150;4.508;2022-10-16T00:23:46;3.53;;;1.00;;
72464;SDS011;60471;52.150;4.508;2022-10-16T00:26:16;6.93;;;1.30;;
72464;SDS011;60471;52.150;4.508;2022-10-16T00:28:47;5.90;;;1.33;;
72464;SDS011;60471;52.150;4.508;2022-10-16T00:31:15;6.10;;;1.50;;
72464;SDS011;60471;52.150;4.508;2022-10-16T00:33:43;7.45;;;1.52;;
72464;SDS011;60471;52.150;4.508;2022-10-16T00:36:11;7.03;;;1.60;;
72464;SDS011;60471;52.150;4.508;2022-10-16T00:38:40;7.45;;;1.30;;
72464;SDS011;60471;52.150;4.508;2022-10-16T00:41:07;6.38;;;1.23;;
72464;SDS011;60471;52.150;4.508;2022-10-16T00:43:39;7.30;;;1.38;;
72464;SDS011;60471;52.150;4.508;2022-10-16T00:46:20;7.53;;;1.35;;
72464;SDS011;60471;52.150;4.508;2022-10-16T00:49:05;7.15;;;1.20;;
72464;SDS011;60471;52.150;4.508;2022-10-16T00:51:39;5.30;;;1.58;;
72464;SDS011;60471;52.150;4.508;2022-10-16T00:54:13;6.38;;;1.20;;
72464;SDS011;60471;52.150;4.508;2022-10-16T00:56:43;8.27;;;1.38;;
72464;SDS011;60471;52.150;4.508;2022-10-16T00:59:34;9.20;;;1.33;;
72464;SDS011;60471;52.150;4.508;2022-10-16T01:02:05;4.82;;;1.30;;
72464;SDS011;60471;52.150;4.508;2022-10-16T01:04:36;6.68;;;1.38;;
72464;SDS011;60471;52.150;4.508;2022-10-16T01:07:20;7.78;;;1.45;;
72464;SDS011;60471;52.150;4.508;2022-10-16T01:09:57;10.73;;;1.30;;
72464;SDS011;60471;52.150;4.508;2022-10-16T01:12:52;6.18;;;1.60;;
72464;SDS011;60471;52.150;4.508;2022-10-16T01:15:42;5.53;;;1.20;;
72464;SDS011;60471;52.150;4.508;2022-10-16T01:18:24;4.45;;;1.13;;
72464;SDS011;60471;52.150;4.508;2022-10-16T01:21:10;5.93;;;1.40;;
72464;SDS011;60471;52.150;4.508;2022-10-16T01:23:48;6.65;;;1.30;;
72464;SDS011;60471;52.150;4.508;2022-10-16T01:29:43;6.75;;;1.42;;
72464;SDS011;60471;52.150;4.508;2022-10-16T01:32:56;7.93;;;1.30;;
72464;SDS011;60471;52.150;4.508;2022-10-16T01:35:38;4.40;;;1.13;;
72464;SDS011;60471;52.150;4.508;2022-10-16T01:41:10;5.80;;;1.33;;
72464;SDS011;60471;52.150;4.508;2022-10-16T01:44:06;4.03;;;1.20;;
72464;SDS011;60471;52.150;4.508;2022-10-16T01:46:39;6.60;;;1.45;;
72464;SDS011;60471;52.150;4.508;2022-10-16T01:49:08;9.57;;;1.30;;
72464;SDS011;60471;52.150;4.508;2022-10-16T01:51:38;5.93;;;1.30;;
72464;SDS011;60471;52.150;4.508;2022-10-16T01:54:05;5.03;;;1.40;;
72464;SDS011;60471;52.150;4.508;2022-10-16T01:56:34;6.85;;;1.33;;
72464;SDS011;60471;52.150;4.508;2022-10-16T01:59:06;8.18;;;1.38;;
72464;SDS011;60471;52.150;4.508;2022-10-16T02:01:46;7.80;;;1.50;;
72464;SDS011;60471;52.150;4.508;2022-10-16T02:04:27;3.72;;;0.93;;
72464;SDS011;60471;52.150;4.508;2022-10-16T02:07:02;7.18;;;1.33;;
72464;SDS011;60471;52.150;4.508;2022-10-16T02:09:29;6.68;;;1.30;;
72464;SDS011;60471;52.150;4.508;2022-10-16T02:11:59;7.90;;;1.30;;
72464;SDS011;60471;52.150;4.508;2022-10-16T02:14:38;6.25;;;1.50;;
72464;SDS011;60471;52.150;4.508;2022-10-16T02:17:15;9.25;;;1.63;;
72464;SDS011;60471;52.150;4.508;2022-10-16T02:19:43;5.65;;;1.58;;
72464;SDS011;60471;52.150;4.508;2022-10-16T02:22:27;6.30;;;1.42;;
72464;SDS011;60471;52.150;4.508;2022-10-16T02:25:10;5.32;;;1.38;;
72464;SDS011;60471;52.150;4.508;2022-10-16T02:33:10;5.80;;;1.20;;
72464;SDS011;60471;52.150;4.508;2022-10-16T02:35:40;8.77;;;1.73;;
72464;SDS011;60471;52.150;4.508;2022-10-16T02:38:10;6.60;;;1.20;;
72464;SDS011;60471;52.150;4.508;2022-10-16T02:40:39;5.05;;;1.35;;
72464;SDS011;60471;52.150;4.508;2022-10-16T02:43:06;7.15;;;1.50;;
72464;SDS011;60471;52.150;4.508;2022-10-16T02:45:32;9.32;;;1.83;;
72464;SDS011;60471;52.150;4.508;2022-10-16T02:47:59;6.25;;;1.77;;
72464;SDS011;60471;52.150;4.508;2022-10-16T02:50:25;9.10;;;1.80;;
72464;SDS011;60471;52.150;4.508;2022-10-16T02:52:51;6.93;;;1.80;;
72464;SDS011;60471;52.150;4.508;2022-10-16T02:55:17;6.82;;;1.90;;
72464;SDS011;60471;52.150;4.508;2022-10-16T02:57:43;8.00;;;1.60;;
72464;SDS011;60471;52.150;4.508;2022-10-16T03:00:11;8.80;;;1.90;;
72464;SDS011;60471;52.150;4.508;2022-10-16T03:02:40;6.75;;;1.60;;
72464;SDS011;60471;52.150;4.508;2022-10-16T03:05:07;6.40;;;1.45;;
72464;SDS011;60471;52.150;4.508;2022-10-16T03:07:35;7.63;;;2.00;;
72464;SDS011;60471;52.150;4.508;2022-10-16T03:10:01;8.15;;;2.00;;
72464;SDS011;60471;52.150;4.508;2022-10-16T03:12:28;6.63;;;1.58;;
72464;SDS011;60471;52.150;4.508;2022-10-16T03:14:55;9.98;;;1.70;;
72464;SDS011;60471;52.150;4.508;2022-10-16T03:17:22;6.63;;;1.40;;
72464;SDS011;60471;52.150;4.508;2022-10-16T03:19:50;7.55;;;1.80;;
72464;SDS011;60471;52.150;4.508;2022-10-16T03:22:17;8.88;;;1.88;;
72464;SDS011;60471;52.150;4.508;2022-10-16T03:24:43;8.38;;;1.70;;
72464;SDS011;60471;52.150;4.508;2022-10-16T03:27:09;9.73;;;1.77;;
72464;SDS011;60471;52.150;4.508;2022-10-16T03:29:35;7.78;;;1.70;;
72464;SDS011;60471;52.150;4.508;2022-10-16T03:32:02;7.90;;;1.52;;
72464;SDS011;60471;52.150;4.508;2022-10-16T03:34:28;8.48;;;1.73;;
72464;SDS011;60471;52.150;4.508;2022-10-16T03:36:54;8.25;;;1.77;;
72464;SDS011;60471;52.150;4.508;2022-10-16T03:39:20;6.00;;;1.70;;
72464;SDS011;60471;52.150;4.508;2022-10-16T03:41:46;11.23;;;2.25;;
72464;SDS011;60471;52.150;4.508;2022-10-16T03:44:13;10.20;;;1.90;;
72464;SDS011;60471;52.150;4.508;2022-10-16T03:46:39;7.43;;;1.80;;
72464;SDS011;60471;52.150;4.508;2022-10-16T03:49:05;7.28;;;2.00;;
72464;SDS011;60471;52.150;4.508;2022-10-16T03:51:32;8.20;;;1.90;;
72464;SDS011;60471;52.150;4.508;2022-10-16T03:53:58;12.35;;;1.77;;
72464;SDS011;60471;52.150;4.508;2022-10-16T03:56:24;9.18;;;1.67;;
72464;SDS011;60471;52.150;4.508;2022-10-16T03:58:50;7.68;;;1.65;;
72464;SDS011;60471;52.150;4.508;2022-10-16T04:01:17;11.15;;;1.80;;
72464;SDS011;60471;52.150;4.508;2022-10-16T04:03:43;7.10;;;1.63;;
72464;SDS011;60471;52.150;4.508;2022-10-16T04:06:09;9.63;;;1.70;;
72464;SDS011;60471;52.150;4.508;2022-10-16T04:08:35;7.65;;;1.67;;
72464;SDS011;60471;52.150;4.508;2022-10-16T04:11:02;12.45;;;2.00;;
72464;SDS011;60471;52.150;4.508;2022-10-16T04:13:29;7.00;;;1.67;;
72464;SDS011;60471;52.150;4.508;2022-10-16T04:15:55;7.57;;;1.55;;
72464;SDS011;60471;52.150;4.508;2022-10-16T04:18:21;7.30;;;1.55;;
72464;SDS011;60471;52.150;4.508;2022-10-16T04:20:47;6.78;;;1.50;;
72464;SDS011;60471;52.150;4.508;2022-10-16T04:23:13;6.07;;;1.23;;
72464;SDS011;60471;52.150;4.508;2022-10-16T04:25:40;10.20;;;1.55;;
72464;SDS011;60471;52.150;4.508;2022-10-16T04:28:06;10.40;;;1.58;;
72464;SDS011;60471;52.150;4.508;2022-10-16T04:30:32;10.88;;;1.92;;
72464;SDS011;60471;52.150;4.508;2022-10-16T04:32:59;6.43;;;1.55;;
72464;SDS011;60471;52.150;4.508;2022-10-16T04:35:25;7.40;;;1.40;;
72464;SDS011;60471;52.150;4.508;2022-10-16T04:37:51;8.27;;;1.75;;
72464;SDS011;60471;52.150;4.508;2022-10-16T04:40:17;10.27;;;1.60;;
72464;SDS011;60471;52.150;4.508;2022-10-16T04:42:44;8.98;;;1.92;;
72464;SDS011;60471;52.150;4.508;2022-10-16T04:45:10;7.63;;;1.80;;
72464;SDS011;60471;52.150;4.508;2022-10-16T04:47:39;7.03;;;1.98;;
72464;SDS011;60471;52.150;4.508;2022-10-16T04:50:05;10.43;;;2.10;;
72464;SDS011;60471;52.150;4.508;2022-10-16T04:52:32;10.23;;;2.25;;
72464;SDS011;60471;52.150;4.508;2022-10-16T04:54:59;8.40;;;2.30;;
72464;SDS011;60471;52.150;4.508;2022-10-16T04:57:28;10.63;;;2.55;;
72464;SDS011;60471;52.150;4.508;2022-10-16T04:59:55;11.23;;;2.30;;
72464;SDS011;60471;52.150;4.508;2022-10-16T05:02:21;8.32;;;2.30;;
72464;SDS011;60471;52.150;4.508;2022-10-16T05:04:48;9.32;;;2.88;;
72464;SDS011;60471;52.150;4.508;2022-10-16T05:07:14;8.00;;;2.67;;
72464;SDS011;60471;52.150;4.508;2022-10-16T05:09:40;9.35;;;2.80;;
72464;SDS011;60471;52.150;4.508;2022-10-16T05:12:06;8.88;;;2.50;;
72464;SDS011;60471;52.150;4.508;2022-10-16T05:14:32;9.52;;;2.58;;
72464;SDS011;60471;52.150;4.508;2022-10-16T05:16:59;11.23;;;2.83;;
72464;SDS011;60471;52.150;4.508;2022-10-16T05:19:26;10.23;;;2.25;;
72464;SDS011;60471;52.150;4.508;2022-10-16T05:21:52;11.43;;;2.63;;
72464;SDS011;60471;52.150;4.508;2022-10-16T05:24:18;7.72;;;2.60;;
72464;SDS011;60471;52.150;4.508;2022-10-16T05:26:44;9.88;;;2.13;;
72464;SDS011;60471;52.150;4.508;2022-10-16T05:29:11;10.38;;;2.00;;
72464;SDS011;60471;52.150;4.508;2022-10-16T05:31:37;12.43;;;2.10;;
72464;SDS011;60471;52.150;4.508;2022-10-16T05:34:03;9.52;;;2.17;;
72464;SDS011;60471;52.150;4.508;2022-10-16T05:36:29;11.75;;;2.63;;
72464;SDS011;60471;52.150;4.508;2022-10-16T05:38:55;15.55;;;5.50;;
72464;SDS011;60471;52.150;4.508;2022-10-16T05:41:22;10.07;;;2.65;;
72464;SDS011;60471;52.150;4.508;2022-10-16T05:43:51;9.02;;;2.58;;
72464;SDS011;60471;52.150;4.508;2022-10-16T05:46:18;9.68;;;2.53;;
72464;SDS011;60471;52.150;4.508;2022-10-16T05:48:44;15.20;;;2.88;;
72464;SDS011;60471;52.150;4.508;2022-10-16T05:51:11;10.73;;;2.58;;
72464;SDS011;60471;52.150;4.508;2022-10-16T05:53:39;8.95;;;2.50;;
72464;SDS011;60471;52.150;4.508;2022-10-16T05:56:07;9.25;;;2.90;;
72464;SDS011;60471;52.150;4.508;2022-10-16T05:58:36;9.32;;;3.03;;
72464;SDS011;60471;52.150;4.508;2022-10-16T06:01:07;10.75;;;3.22;;
72464;SDS011;60471;52.150;4.508;2022-10-16T06:06:17;12.32;;;2.60;;
72464;SDS011;60471;52.150;4.508;2022-10-16T06:08:47;14.13;;;2.97;;
72464;SDS011;60471;52.150;4.508;2022-10-16T06:11:19;15.45;;;3.80;;
72464;SDS011;60471;52.150;4.508;2022-10-16T06:13:49;10.90;;;3.33;;
72464;SDS011;60471;52.150;4.508;2022-10-16T06:16:20;11.90;;;3.13;;
72464;SDS011;60471;52.150;4.508;2022-10-16T06:18:46;9.52;;;2.53;;
72464;SDS011;60471;52.150;4.508;2022-10-16T06:21:16;12.77;;;2.78;;
72464;SDS011;60471;52.150;4.508;2022-10-16T06:23:50;13.95;;;2.58;;
72464;SDS011;60471;52.150;4.508;2022-10-16T06:26:18;10.52;;;2.80;;
72464;SDS011;60471;52.150;4.508;2022-10-16T06:28:47;10.77;;;2.28;;
72464;SDS011;60471;52.150;4.508;2022-10-16T06:31:13;11.05;;;2.08;;
72464;SDS011;60471;52.150;4.508;2022-10-16T06:33:41;11.95;;;2.78;;
72464;SDS011;60471;52.150;4.508;2022-10-16T06:36:09;16.75;;;6.10;;
72464;SDS011;60471;52.150;4.508;2022-10-16T06:38:38;9.30;;;2.38;;
72464;SDS011;60471;52.150;4.508;2022-10-16T06:41:05;8.80;;;2.30;;
72464;SDS011;60471;52.150;4.508;2022-10-16T06:43:34;9.85;;;2.42;;
72464;SDS011;60471;52.150;4.508;2022-10-16T06:46:01;11.77;;;2.00;;
72464;SDS011;60471;52.150;4.508;2022-10-16T06:48:29;13.60;;;2.13;;
72464;SDS011;60471;52.150;4.508;2022-10-16T06:53:32;8.88;;;1.77;;
72464;SDS011;60471;52.150;4.508;2022-10-16T06:56:14;10.98;;;1.92;;
72464;SDS011;60471;52.150;4.508;2022-10-16T06:58:44;8.95;;;1.70;;
72464;SDS011;60471;52.150;4.508;2022-10-16T07:01:12;9.88;;;2.60;;
72464;SDS011;60471;52.150;4.508;2022-10-16T07:03:40;17.38;;;3.45;;
72464;SDS011;60471;52.150;4.508;2022-10-16T07:06:10;12.05;;;2.58;;
72464;SDS011;60471;52.150;4.508;2022-10-16T07:08:39;10.30;;;1.98;;
72464;SDS011;60471;52.150;4.508;2022-10-16T07:11:09;14.98;;;1.77;;
72464;SDS011;60471;52.150;4.508;2022-10-16T07:13:42;11.18;;;1.95;;
72464;SDS011;60471;52.150;4.508;2022-10-16T07:18:42;13.90;;;2.00;;
72464;SDS011;60471;52.150;4.508;2022-10-16T07:21:12;13.23;;;2.30;;
72464;SDS011;60471;52.150;4.508;2022-10-16T07:23:50;10.07;;;1.98;;
72464;SDS011;60471;52.150;4.508;2022-10-16T07:26:18;10.82;;;2.25;;
72464;SDS011;60471;52.150;4.508;2022-10-16T07:28:44;10.13;;;1.80;;
72464;SDS011;60471;52.150;4.508;2022-10-16T07:31:12;17.67;;;7.05;;
72464;SDS011;60471;52.150;4.508;2022-10-16T07:33:42;12.23;;;2.47;;
72464;SDS011;60471;52.150;4.508;2022-10-16T07:36:11;12.45;;;2.20;;
72464;SDS011;60471;52.150;4.508;2022-10-16T07:38:38;9.85;;;2.05;;
72464;SDS011;60471;52.150;4.508;2022-10-16T07:41:05;8.57;;;1.85;;
72464;SDS011;60471;52.150;4.508;2022-10-16T07:43:34;16.25;;;3.30;;
72464;SDS011;60471;52.150;4.508;2022-10-16T07:46:00;13.93;;;2.72;;
72464;SDS011;60471;52.150;4.508;2022-10-16T07:48:28;9.20;;;2.42;;
72464;SDS011;60471;52.150;4.508;2022-10-16T07:51:00;14.80;;;2.15;;
72464;SDS011;60471;52.150;4.508;2022-10-16T07:53:30;14.63;;;2.20;;
72464;SDS011;60471;52.150;4.508;2022-10-16T07:56:00;11.30;;;2.40;;
72464;SDS011;60471;52.150;4.508;2022-10-16T07:58:31;12.52;;;2.65;;
72464;SDS011;60471;52.150;4.508;2022-10-16T08:01:02;8.43;;;1.90;;
72464;SDS011;60471;52.150;4.508;2022-10-16T08:03:32;16.83;;;2.22;;
72464;SDS011;60471;52.150;4.508;2022-10-16T08:05:59;12.57;;;2.00;;
72464;SDS011;60471;52.150;4.508;2022-10-16T08:08:26;9.85;;;2.08;;
72464;SDS011;60471;52.150;4.508;2022-10-16T08:10:53;15.80;;;2.60;;
72464;SDS011;60471;52.150;4.508;2022-10-16T08:13:20;16.70;;;2.88;;
72464;SDS011;60471;52.150;4.508;2022-10-16T08:15:46;14.30;;;2.38;;
72464;SDS011;60471;52.150;4.508;2022-10-16T08:18:14;16.83;;;2.22;;
72464;SDS011;60471;52.150;4.508;2022-10-16T08:20:41;18.50;;;6.88;;
72464;SDS011;60471;52.150;4.508;2022-10-16T08:23:09;13.35;;;2.95;;
72464;SDS011;60471;52.150;4.508;2022-10-16T08:25:38;18.80;;;2.38;;
72464;SDS011;60471;52.150;4.508;2022-10-16T08:28:05;14.90;;;2.40;;
72464;SDS011;60471;52.150;4.508;2022-10-16T08:30:33;13.40;;;2.45;;
72464;SDS011;60471;52.150;4.508;2022-10-16T08:33:00;17.27;;;2.58;;
72464;SDS011;60471;52.150;4.508;2022-10-16T08:35:27;13.90;;;2.10;;
72464;SDS011;60471;52.150;4.508;2022-10-16T08:37:54;18.20;;;2.53;;
72464;SDS011;60471;52.150;4.508;2022-10-16T08:40:22;16.48;;;2.47;;
72464;SDS011;60471;52.150;4.508;2022-10-16T08:51:31;13.32;;;2.20;;
72464;SDS011;60471;52.150;4.508;2022-10-16T08:54:06;17.52;;;2.90;;
72464;SDS011;60471;52.150;4.508;2022-10-16T08:56:48;10.85;;;2.13;;
72464;SDS011;60471;52.150;4.508;2022-10-16T08:59:15;15.43;;;2.25;;
72464;SDS011;60471;52.150;4.508;2022-10-16T09:01:45;23.50;;;4.50;;
72464;SDS011;60471;52.150;4.508;2022-10-16T09:13:21;12.68;;;2.10;;
72464;SDS011;60471;52.150;4.508;2022-10-16T09:21:29;13.13;;;2.33;;
72464;SDS011;60471;52.150;4.508;2022-10-16T09:24:17;16.95;;;2.42;;
72464;SDS011;60471;52.150;4.508;2022-10-16T09:26:47;13.65;;;2.38;;
72464;SDS011;60471;52.150;4.508;2022-10-16T09:29:14;16.30;;;2.38;;
72464;SDS011;60471;52.150;4.508;2022-10-16T09:31:45;12.98;;;2.15;;
72464;SDS011;60471;52.150;4.508;2022-10-16T09:34:22;18.00;;;2.97;;
72464;SDS011;60471;52.150;4.508;2022-10-16T09:36:57;21.50;;;3.10;;
72464;SDS011;60471;52.150;4.508;2022-10-16T09:39:27;12.27;;;2.55;;
72464;SDS011;60471;52.150;4.508;2022-10-16T09:41:53;14.75;;;2.42;;
72464;SDS011;60471;52.150;4.508;2022-10-16T09:44:26;12.05;;;2.38;;
72464;SDS011;60471;52.150;4.508;2022-10-16T09:47:04;18.65;;;2.35;;
72464;SDS011;60471;52.150;4.508;2022-10-16T09:49:38;15.15;;;2.78;;
72464;SDS011;60471;52.150;4.508;2022-10-16T09:52:05;20.35;;;3.10;;
72464;SDS011;60471;52.150;4.508;2022-10-16T09:54:55;18.48;;;3.53;;
72464;SDS011;60471;52.150;4.508;2022-10-16T09:57:23;17.83;;;2.40;;
72464;SDS011;60471;52.150;4.508;2022-10-16T09:59:51;15.85;;;2.60;;
72464;SDS011;60471;52.150;4.508;2022-10-16T10:02:26;16.08;;;2.20;;
72464;SDS011;60471;52.150;4.508;2022-10-16T10:04:59;17.45;;;2.78;;
72464;SDS011;60471;52.150;4.508;2022-10-16T10:07:27;17.90;;;2.70;;
72464;SDS011;60471;52.150;4.508;2022-10-16T10:10:01;16.13;;;2.40;;
72464;SDS011;60471;52.150;4.508;2022-10-16T10:12:31;13.90;;;2.42;;
72464;SDS011;60471;52.150;4.508;2022-10-16T10:15:07;15.07;;;2.55;;
72464;SDS011;60471;52.150;4.508;2022-10-16T10:23:00;13.93;;;2.60;;
72464;SDS011;60471;52.150;4.508;2022-10-16T10:25:50;21.23;;;2.92;;
72464;SDS011;60471;52.150;4.508;2022-10-16T10:29:30;20.10;;;3.05;;
72464;SDS011;60471;52.150;4.508;2022-10-16T10:31:59;13.00;;;2.20;;
72464;SDS011;60471;52.150;4.508;2022-10-16T10:41:32;17.65;;;2.53;;
72464;SDS011;60471;52.150;4.508;2022-10-16T10:50:04;14.73;;;2.45;;
72464;SDS011;60471;52.150;4.508;2022-10-16T11:04:49;14.02;;;2.65;;
72464;SDS011;60471;52.150;4.508;2022-10-16T11:07:33;20.55;;;3.10;;
72464;SDS011;60471;52.150;4.508;2022-10-16T11:10:12;16.88;;;2.33;;
72464;SDS011;60471;52.150;4.508;2022-10-16T11:12:47;15.18;;;2.15;;
72464;SDS011;60471;52.150;4.508;2022-10-16T11:15:25;14.32;;;2.30;;
72464;SDS011;60471;52.150;4.508;2022-10-16T11:18:04;14.32;;;2.55;;
72464;SDS011;60471;52.150;4.508;2022-10-16T11:20:39;13.52;;;2.25;;
72464;SDS011;60471;52.150;4.508;2022-10-16T11:23:16;17.25;;;2.50;;
72464;SDS011;60471;52.150;4.508;2022-10-16T11:25:52;16.20;;;2.47;;
72464;SDS011;60471;52.150;4.508;2022-10-16T11:28:37;14.98;;;2.40;;
72464;SDS011;60471;52.150;4.508;2022-10-16T11:31:19;15.40;;;2.65;;
72464;SDS011;60471;52.150;4.508;2022-10-16T11:36:33;13.10;;;2.25;;
72464;SDS011;60471;52.150;4.508;2022-10-16T11:39:21;9.40;;;1.67;;
72464;SDS011;60471;52.150;4.508;2022-10-16T11:42:44;12.00;;;2.40;;
72464;SDS011;60471;52.150;4.508;2022-10-16T11:45:13;14.05;;;2.28;;
72464;SDS011;60471;52.150;4.508;2022-10-16T11:50:45;14.32;;;2.35;;
72464;SDS011;60471;52.150;4.508;2022-10-16T11:56:29;10.05;;;1.70;;
72464;SDS011;60471;52.150;4.508;2022-10-16T11:59:03;14.73;;;2.95;;
72464;SDS011;60471;52.150;4.508;2022-10-16T12:02:07;12.98;;;2.33;;
72464;SDS011;60471;52.150;4.508;2022-10-16T12:10:43;13.95;;;2.40;;
72464;SDS011;60471;52.150;4.508;2022-10-16T12:16:05;17.88;;;2.70;;
72464;SDS011;60471;52.150;4.508;2022-10-16T12:19:10;15.02;;;2.67;;
72464;SDS011;60471;52.150;4.508;2022-10-16T12:21:39;12.60;;;2.28;;
72464;SDS011;60471;52.150;4.508;2022-10-16T12:24:06;13.13;;;2.33;;
72464;SDS011;60471;52.150;4.508;2022-10-16T12:26:55;11.68;;;2.30;;
72464;SDS011;60471;52.150;4.508;2022-10-16T12:32:23;11.32;;;2.17;;
72464;SDS011;60471;52.150;4.508;2022-10-16T12:35:05;12.70;;;2.08;;
72464;SDS011;60471;52.150;4.508;2022-10-16T12:37:47;11.38;;;1.98;;
72464;SDS011;60471;52.150;4.508;2022-10-16T12:40:16;12.15;;;1.92;;
72464;SDS011;60471;52.150;4.508;2022-10-16T12:42:56;11.77;;;1.88;;
72464;SDS011;60471;52.150;4.508;2022-10-16T12:45:29;15.18;;;2.40;;
72464;SDS011;60471;52.150;4.508;2022-10-16T12:48:00;15.02;;;2.25;;
72464;SDS011;60471;52.150;4.508;2022-10-16T12:50:32;15.23;;;2.37;;
72464;SDS011;60471;52.150;4.508;2022-10-16T12:53:03;10.57;;;1.92;;
72464;SDS011;60471;52.150;4.508;2022-10-16T12:55:58;15.60;;;2.17;;
72464;SDS011;60471;52.150;4.508;2022-10-16T12:58:47;12.90;;;2.13;;
72464;SDS011;60471;52.150;4.508;2022-10-16T13:04:46;17.63;;;2.42;;
72464;SDS011;60471;52.150;4.508;2022-10-16T13:10:38;12.57;;;2.00;;
72464;SDS011;60471;52.150;4.508;2022-10-16T13:13:18;14.82;;;2.13;;
72464;SDS011;60471;52.150;4.508;2022-10-16T13:28:29;20.67;;;3.70;;
72464;SDS011;60471;52.150;4.508;2022-10-16T13:31:00;16.48;;;2.97;;
72464;SDS011;60471;52.150;4.508;2022-10-16T13:33:30;13.70;;;2.40;;
72464;SDS011;60471;52.150;4.508;2022-10-16T13:36:02;14.50;;;2.85;;
72464;SDS011;60471;52.150;4.508;2022-10-16T13:38:31;15.82;;;2.88;;
72464;SDS011;60471;52.150;4.508;2022-10-16T13:41:02;15.93;;;2.60;;
72464;SDS011;60471;52.150;4.508;2022-10-16T13:43:36;12.75;;;1.88;;
72464;SDS011;60471;52.150;4.508;2022-10-16T13:46:14;17.17;;;2.67;;
72464;SDS011;60471;52.150;4.508;2022-10-16T13:48:58;17.92;;;2.10;;
72464;SDS011;60471;52.150;4.508;2022-10-16T13:51:30;13.68;;;2.70;;
72464;SDS011;60471;52.150;4.508;2022-10-16T13:53:58;16.67;;;2.60;;
72464;SDS011;60471;52.150;4.508;2022-10-16T13:56:26;17.42;;;2.22;;
72464;SDS011;60471;52.150;4.508;2022-10-16T13:59:00;18.42;;;2.15;;
72464;SDS011;60471;52.150;4.508;2022-10-16T14:01:48;22.60;;;3.47;;
72464;SDS011;60471;52.150;4.508;2022-10-16T14:04:19;18.33;;;2.97;;
72464;SDS011;60471;52.150;4.508;2022-10-16T14:06:46;30.67;;;9.95;;
72464;SDS011;60471;52.150;4.508;2022-10-16T14:11:51;13.18;;;2.63;;
72464;SDS011;60471;52.150;4.508;2022-10-16T14:14:22;16.00;;;2.70;;
72464;SDS011;60471;52.150;4.508;2022-10-16T14:16:49;17.55;;;2.20;;
72464;SDS011;60471;52.150;4.508;2022-10-16T14:19:24;12.90;;;2.20;;
72464;SDS011;60471;52.150;4.508;2022-10-16T14:21:55;12.55;;;2.20;;
72464;SDS011;60471;52.150;4.508;2022-10-16T14:24:32;12.95;;;2.28;;
72464;SDS011;60471;52.150;4.508;2022-10-16T14:27:00;16.60;;;2.88;;
72464;SDS011;60471;52.150;4.508;2022-10-16T14:29:29;14.60;;;2.38;;
72464;SDS011;60471;52.150;4.508;2022-10-16T14:32:00;23.25;;;3.00;;
72464;SDS011;60471;52.150;4.508;2022-10-16T14:34:31;18.55;;;3.00;;
72464;SDS011;60471;52.150;4.508;2022-10-16T14:39:50;15.98;;;2.55;;
72464;SDS011;60471;52.150;4.508;2022-10-16T14:42:18;15.93;;;2.60;;
72464;SDS011;60471;52.150;4.508;2022-10-16T14:44:50;15.65;;;2.50;;
72464;SDS011;60471;52.150;4.508;2022-10-16T14:47:19;14.68;;;2.58;;
72464;SDS011;60471;52.150;4.508;2022-10-16T14:49:52;15.68;;;2.50;;
72464;SDS011;60471;52.150;4.508;2022-10-16T14:52:21;16.20;;;2.42;;
72464;SDS011;60471;52.150;4.508;2022-10-16T14:54:48;19.85;;;2.88;;
72464;SDS011;60471;52.150;4.508;2022-10-16T14:57:16;17.58;;;2.65;;
72464;SDS011;60471;52.150;4.508;2022-10-16T14:59:46;19.20;;;2.55;;
72464;SDS011;60471;52.150;4.508;2022-10-16T15:04:48;16.90;;;3.08;;
72464;SDS011;60471;52.150;4.508;2022-10-16T15:07:14;15.93;;;2.35;;
72464;SDS011;60471;52.150;4.508;2022-10-16T15:09:41;16.67;;;2.95;;
72464;SDS011;60471;52.150;4.508;2022-10-16T15:12:07;18.67;;;2.50;;
72464;SDS011;60471;52.150;4.508;2022-10-16T15:14:33;18.55;;;2.42;;
72464;SDS011;60471;52.150;4.508;2022-10-16T15:17:00;17.25;;;2.83;;
72464;SDS011;60471;52.150;4.508;2022-10-16T15:19:26;17.98;;;2.92;;
72464;SDS011;60471;52.150;4.508;2022-10-16T15:21:52;16.73;;;2.92;;
72464;SDS011;60471;52.150;4.508;2022-10-16T15:24:18;24.13;;;2.60;;
72464;SDS011;60471;52.150;4.508;2022-10-16T15:26:45;16.27;;;2.80;;
72464;SDS011;60471;52.150;4.508;2022-10-16T15:29:14;18.70;;;6.32;;
72464;SDS011;60471;52.150;4.508;2022-10-16T15:31:41;15.30;;;3.47;;
72464;SDS011;60471;52.150;4.508;2022-10-16T15:34:13;18.15;;;3.28;;
72464;SDS011;60471;52.150;4.508;2022-10-16T15:36:41;19.00;;;2.80;;
72464;SDS011;60471;52.150;4.508;2022-10-16T15:39:14;15.75;;;2.65;;
72464;SDS011;60471;52.150;4.508;2022-10-16T15:41:46;23.20;;;4.32;;
72464;SDS011;60471;52.150;4.508;2022-10-16T15:44:16;19.58;;;3.47;;
72464;SDS011;60471;52.150;4.508;2022-10-16T15:46:43;18.20;;;2.90;;
72464;SDS011;60471;52.150;4.508;2022-10-16T15:49:10;18.40;;;2.95;;
72464;SDS011;60471;52.150;4.508;2022-10-16T15:51:40;11.98;;;2.80;;
72464;SDS011;60471;52.150;4.508;2022-10-16T15:54:08;16.67;;;5.45;;
72464;SDS011;60471;52.150;4.508;2022-10-16T15:56:35;16.92;;;5.28;;
72464;SDS011;60471;52.150;4.508;2022-10-16T15:59:02;22.00;;;3.67;;
72464;SDS011;60471;52.150;4.508;2022-10-16T16:01:31;18.55;;;3.00;;
72464;SDS011;60471;52.150;4.508;2022-10-16T16:03:59;18.17;;;3.00;;
72464;SDS011;60471;52.150;4.508;2022-10-16T16:06:26;131.50;;;90.10;;
72464;SDS011;60471;52.150;4.508;2022-10-16T16:08:52;158.25;;;91.00;;
72464;SDS011;60471;52.150;4.508;2022-10-16T16:11:19;74.30;;;44.63;;
72464;SDS011;60471;52.150;4.508;2022-10-16T16:13:46;28.75;;;14.25;;
72464;SDS011;60471;52.150;4.508;2022-10-16T16:16:15;26.52;;;6.25;;
72464;SDS011;60471;52.150;4.508;2022-10-16T16:18:44;15.73;;;2.90;;
72464;SDS011;60471;52.150;4.508;2022-10-16T16:21:11;17.35;;;3.85;;
72464;SDS011;60471;52.150;4.508;2022-10-16T16:23:38;19.90;;;5.03;;
72464;SDS011;60471;52.150;4.508;2022-10-16T16:26:05;21.00;;;5.43;;
72464;SDS011;60471;52.150;4.508;2022-10-16T16:28:52;22.65;;;4.22;;
72464;SDS011;60471;52.150;4.508;2022-10-16T16:31:20;15.45;;;4.13;;
72464;SDS011;60471;52.150;4.508;2022-10-16T16:33:50;19.45;;;5.80;;
72464;SDS011;60471;52.150;4.508;2022-10-16T16:36:17;124.97;;;74.18;;
72464;SDS011;60471;52.150;4.508;2022-10-16T16:38:44;73.72;;;44.28;;
72464;SDS011;60471;52.150;4.508;2022-10-16T16:41:16;27.38;;;10.93;;
72464;SDS011;60471;52.150;4.508;2022-10-16T16:43:45;21.15;;;6.82;;
72464;SDS011;60471;52.150;4.508;2022-10-16T16:46:13;23.55;;;5.40;;
72464;SDS011;60471;52.150;4.508;2022-10-16T16:48:40;17.90;;;4.72;;
72464;SDS011;60471;52.150;4.508;2022-10-16T16:51:09;24.23;;;4.35;;
72464;SDS011;60471;52.150;4.508;2022-10-16T16:53:44;21.42;;;4.35;;
72464;SDS011;60471;52.150;4.508;2022-10-16T16:56:13;129.15;;;77.85;;
72464;SDS011;60471;52.150;4.508;2022-10-16T16:58:40;122.60;;;76.47;;
72464;SDS011;60471;52.150;4.508;2022-10-16T17:01:09;43.45;;;22.70;;
72464;SDS011;60471;52.150;4.508;2022-10-16T17:03:35;21.90;;;7.22;;